Time;durP1;ratioP1;P1;durP2;ratioP2;P2;SDS_P1;SDS_P2;PMS_P1;PMS_P2;Temp;Humidity;BMP_temperature;BMP_pressure;BME280_temperature;BME280_humidity;BME280_pressure;Samples;Min_cycle;Max_cycle;Signal;HPM_P1;HPM_P2
2023/11/21 00:01:25;;;;;;;51.45;30.98;;;;;;;5.66;100.00;100968.75;5041515;28;20040;-73
2023/11/21 00:03:50;;;;;;;49.78;30.42;;;;;;;5.63;100.00;100966.06;5043617;28;20491;-74
2023/11/21 00:06:16;;;;;;;50.30;31.10;;;;;;;5.58;100.00;100963.31;5042766;28;20117;-73
2023/11/21 00:08:41;;;;;;;53.35;31.77;;;;;;;5.58;100.00;100969.44;5042119;28;20029;-73
2023/11/21 00:11:06;;;;;;;51.15;30.77;;;;;;;5.53;100.00;100973.69;5044151;28;20035;-74
2023/11/21 00:13:32;;;;;;;52.28;31.83;;;;;;;5.47;100.00;100977.88;5040936;28;20029;-73
2023/11/21 00:15:58;;;;;;;56.15;33.33;;;;;;;5.46;100.00;100977.00;5042946;28;20192;-73
2023/11/21 00:18:23;;;;;;;53.65;31.85;;;;;;;5.42;100.00;100975.13;5041656;28;20116;-74
2023/11/21 00:20:49;;;;;;;54.38;31.73;;;;;;;5.34;100.00;100976.63;5042939;28;20473;-74
2023/11/21 00:23:14;;;;;;;52.88;31.25;;;;;;;5.33;100.00;100974.84;5043010;28;20412;-73
2023/11/21 00:25:40;;;;;;;54.85;32.30;;;;;;;5.26;100.00;100965.03;5041871;28;20037;-73
2023/11/21 00:28:05;;;;;;;59.15;32.40;;;;;;;5.23;100.00;100979.84;5044151;28;20071;-74
2023/11/21 00:30:31;;;;;;;58.30;33.53;;;;;;;5.18;100.00;100970.94;5040838;28;20028;-73
2023/11/21 00:32:57;;;;;;;70.80;34.40;;;;;;;5.14;100.00;100971.75;5044138;28;20029;-71
2023/11/21 00:35:22;;;;;;;61.65;32.60;;;;;;;5.10;100.00;100976.81;5041491;28;20491;-71
2023/11/21 00:37:49;;;;;;;72.95;33.65;;;;;;;5.02;100.00;100974.91;5042872;28;20025;-71
2023/11/21 00:40:15;;;;;;;51.30;30.00;;;;;;;5.01;100.00;100977.44;5042580;28;20044;-71
2023/11/21 00:42:41;;;;;;;63.47;31.05;;;;;;;4.88;100.00;100974.47;5041385;28;20496;-71
2023/11/21 00:45:07;;;;;;;183.10;37.20;;;;;;;4.78;100.00;100975.03;5043819;28;20025;-72
2023/11/21 00:47:32;;;;;;;151.00;32.58;;;;;;;4.79;100.00;100971.59;5040652;28;20079;-71
2023/11/21 00:49:57;;;;;;;52.47;32.53;;;;;;;4.80;100.00;100983.81;5044240;28;20025;-71
2023/11/21 00:52:23;;;;;;;64.25;33.10;;;;;;;4.80;100.00;100981.22;5045257;28;20035;-71
2023/11/21 00:54:49;;;;;;;66.55;34.10;;;;;;;4.80;100.00;100973.34;5045313;28;20029;-72
2023/11/21 00:57:14;;;;;;;58.92;32.88;;;;;;;4.79;100.00;100976.84;5046277;28;20056;-71
2023/11/21 00:59:40;;;;;;;55.65;33.60;;;;;;;4.79;100.00;100986.41;5045651;28;20114;-71
2023/11/21 01:02:05;;;;;;;55.35;32.40;;;;;;;4.73;100.00;100992.34;5047592;28;20120;-71
2023/11/21 01:04:32;;;;;;;55.50;32.83;;;;;;;4.71;100.00;100997.53;5044478;28;20531;-71
2023/11/21 01:06:57;;;;;;;63.10;35.97;;;;;;;4.67;100.00;100995.66;5047746;28;20470;-71
2023/11/21 01:09:23;;;;;;;58.17;33.85;;;;;;;4.66;100.00;100996.53;5045057;28;20108;-71
2023/11/21 01:11:49;;;;;;;64.50;35.08;;;;;;;4.60;100.00;100993.72;5046387;28;20049;-71
2023/11/21 01:14:14;;;;;;;59.80;35.33;;;;;;;4.58;100.00;101005.84;5046436;28;20049;-71
2023/11/21 01:16:40;;;;;;;85.95;36.28;;;;;;;4.48;100.00;101002.06;5044924;28;20068;-71
2023/11/21 01:19:05;;;;;;;59.28;34.45;;;;;;;4.48;100.00;101004.66;5047423;28;20314;-71
2023/11/21 01:21:31;;;;;;;81.15;36.78;;;;;;;4.43;100.00;101015.88;5044340;28;20033;-71
2023/11/21 01:23:57;;;;;;;76.97;36.58;;;;;;;4.43;100.00;101019.34;5047192;28;20040;-71
2023/11/21 01:26:22;;;;;;;75.20;36.75;;;;;;;4.42;100.00;101020.19;5045075;28;20079;-71
2023/11/21 01:28:50;;;;;;;61.65;34.15;;;;;;;4.39;100.00;101020.09;5045763;28;20033;-71
2023/11/21 01:31:15;;;;;;;70.75;36.80;;;;;;;4.37;100.00;101021.78;5045697;28;20489;-71
2023/11/21 01:33:41;;;;;;;76.07;36.35;;;;;;;4.32;100.00;101024.22;5045272;28;20113;-71
2023/11/21 01:36:07;;;;;;;69.63;36.47;;;;;;;4.32;100.00;101031.19;5046783;28;20047;-71
2023/11/21 01:38:32;;;;;;;78.05;37.30;;;;;;;4.35;100.00;101036.53;5043756;28;20034;-71
2023/11/21 01:41:00;;;;;;;110.45;39.95;;;;;;;4.39;100.00;101035.78;5047059;28;20033;-71
2023/11/21 01:43:27;;;;;;;263.80;48.15;;;;;;;4.41;100.00;101036.72;5042593;28;20152;-71
2023/11/21 01:45:56;;;;;;;228.02;45.50;;;;;;;4.41;100.00;101036.72;5046417;28;20049;-71
2023/11/21 01:48:22;;;;;;;177.23;41.13;;;;;;;4.44;100.00;101033.31;5044718;28;20424;-71
2023/11/21 01:50:48;;;;;;;375.83;51.08;;;;;;;4.41;100.00;101033.22;5045434;28;20057;-75
2023/11/21 01:53:14;;;;;;;186.23;41.72;;;;;;;4.36;100.00;101033.97;5045476;28;20060;-74
2023/11/21 01:55:45;;;;;;;150.40;38.10;;;;;;;4.34;100.00;101034.78;5044256;28;20468;-74
2023/11/21 01:58:12;;;;;;;254.48;45.70;;;;;;;4.28;100.00;101035.47;5046211;28;20033;-73
2023/11/21 02:00:38;;;;;;;245.32;47.08;;;;;;;4.25;100.00;101029.22;5043789;28;20436;-74
2023/11/21 02:03:04;;;;;;;105.03;36.60;;;;;;;4.23;100.00;101030.91;5046225;28;20036;-74
2023/11/21 02:05:29;;;;;;;151.45;41.40;;;;;;;4.22;100.00;101043.09;5042000;28;20033;-75
2023/11/21 02:07:56;;;;;;;209.23;46.50;;;;;;;4.23;100.00;101044.00;5045978;28;20039;-75
2023/11/21 02:10:22;;;;;;;140.40;41.15;;;;;;;4.23;100.00;101044.88;5044446;28;20504;-75
2023/11/21 02:12:52;;;;;;;203.63;47.50;;;;;;;4.24;100.00;101044.03;5045014;28;20029;-75
2023/11/21 02:15:21;;;;;;;116.30;40.78;;;;;;;4.26;100.00;101044.97;5044654;28;20036;-75
2023/11/21 02:17:50;;;;;;;155.63;43.67;;;;;;;4.26;100.00;101046.72;5044607;28;20072;-74
2023/11/21 02:20:17;;;;;;;144.77;43.17;;;;;;;4.28;100.00;101050.25;5045024;28;20032;-75
2023/11/21 02:22:59;;;;;;;173.45;47.13;;;;;;;4.27;100.00;101058.97;5044078;28;20060;-75
2023/11/21 02:25:32;;;;;;;174.07;44.72;;;;;;;4.28;100.00;101064.25;5043679;28;20052;-75
2023/11/21 02:28:00;;;;;;;185.23;47.30;;;;;;;4.26;100.00;101063.28;5045891;28;20090;-74
2023/11/21 02:30:31;;;;;;;134.43;44.50;;;;;;;4.26;100.00;101059.78;5043487;28;20026;-75
2023/11/21 02:32:57;;;;;;;162.00;44.60;;;;;;;4.23;100.00;101072.78;5045777;28;20033;-75
2023/11/21 02:35:23;;;;;;;186.65;46.97;;;;;;;4.23;100.00;101072.78;5043862;28;20361;-75
2023/11/21 02:37:49;;;;;;;133.50;43.42;;;;;;;4.16;100.00;101077.78;5044738;28;20087;-71
2023/11/21 02:40:17;;;;;;;154.25;45.33;;;;;;;4.10;100.00;101072.34;5044755;28;20033;-71
2023/11/21 02:42:43;;;;;;;128.57;42.70;;;;;;;4.10;100.00;101074.97;5043554;28;20604;-72
2023/11/21 02:45:12;;;;;;;108.20;41.65;;;;;;;4.04;100.00;101069.53;5045807;28;20124;-71
2023/11/21 02:47:38;;;;;;;110.38;42.13;;;;;;;4.01;100.00;101072.91;5041736;28;20037;-71
2023/11/21 02:50:04;;;;;;;135.18;44.35;;;;;;;4.00;100.00;101076.41;5045972;28;20025;-71
2023/11/21 02:52:29;;;;;;;115.18;42.88;;;;;;;4.01;100.00;101083.38;5042636;28;20041;-71
2023/11/21 02:54:54;;;;;;;104.60;42.72;;;;;;;4.00;100.00;101080.72;5045046;28;20024;-71
2023/11/21 02:57:20;;;;;;;118.22;42.13;;;;;;;4.00;100.00;101078.09;5043578;28;20040;-71
2023/11/21 02:59:45;;;;;;;96.63;42.13;;;;;;;4.03;100.00;101083.44;5043959;28;20034;-71
2023/11/21 03:02:10;;;;;;;73.95;38.17;;;;;;;4.03;100.00;101070.34;5044803;28;20025;-72
2023/11/21 03:04:36;;;;;;;101.07;41.70;;;;;;;4.00;100.00;101067.63;5042289;28;20084;-71
2023/11/21 03:07:01;;;;;;;72.25;38.80;;;;;;;4.02;100.00;101073.84;5045721;28;20087;-71
2023/11/21 03:09:27;;;;;;;113.22;42.33;;;;;;;3.99;100.00;101072.00;5041176;28;20476;-71
2023/11/21 03:11:53;;;;;;;126.18;43.20;;;;;;;3.99;100.00;101077.22;5044440;28;20038;-71
2023/11/21 03:14:19;;;;;;;83.13;41.22;;;;;;;4.04;100.00;101074.75;5042727;28;20033;-71
2023/11/21 03:16:45;;;;;;;110.30;43.40;;;;;;;4.02;100.00;101073.84;5043107;28;20048;-71
2023/11/21 03:19:10;;;;;;;80.50;41.03;;;;;;;4.03;100.00;101075.59;5044583;28;20469;-71
2023/11/21 03:21:36;;;;;;;96.75;43.13;;;;;;;4.00;100.00;101075.47;5042221;28;20095;-71
2023/11/21 03:24:01;;;;;;;128.02;45.63;;;;;;;3.96;100.00;101074.50;5045290;28;20429;-71
2023/11/21 03:26:27;;;;;;;100.20;43.72;;;;;;;3.94;100.00;101077.91;5042544;28;20025;-71
2023/11/21 03:28:53;;;;;;;108.20;44.10;;;;;;;3.92;100.00;101085.69;5043986;28;20033;-71
2023/11/21 03:31:19;;;;;;;95.97;43.25;;;;;;;3.89;100.00;101085.59;5043441;28;20079;-71
2023/11/21 03:33:45;;;;;;;79.80;40.85;;;;;;;3.89;100.00;101090.81;5043081;28;20034;-72
2023/11/21 03:36:11;;;;;;;89.15;41.88;;;;;;;3.89;100.00;101087.28;5044413;28;20392;-72
2023/11/21 03:38:36;;;;;;;86.43;42.17;;;;;;;3.87;100.00;101081.13;5041641;28;20037;-71
2023/11/21 03:41:02;;;;;;;124.68;46.30;;;;;;;3.87;100.00;101095.09;5045205;28;20025;-71
2023/11/21 03:43:27;;;;;;;71.65;40.28;;;;;;;3.88;100.00;101090.78;5041485;28;20056;-71
2023/11/21 03:45:52;;;;;;;150.63;46.53;;;;;;;3.84;100.00;101088.03;5044008;28;20044;-71
2023/11/21 03:48:18;;;;;;;132.02;44.17;;;;;;;3.82;100.00;101087.09;5043128;28;20127;-71
2023/11/21 03:50:43;;;;;;;122.93;42.78;;;;;;;3.85;100.00;101088.94;5042432;28;20048;-71
2023/11/21 03:53:08;;;;;;;88.80;43.90;;;;;;;3.86;100.00;101100.25;5044244;28;20033;-71
2023/11/21 03:55:34;;;;;;;72.03;42.83;;;;;;;3.86;100.00;101095.94;5041466;28;20109;-73
2023/11/21 03:57:59;;;;;;;81.78;44.30;;;;;;;3.84;100.00;101103.75;5044382;28;20032;-71
2023/11/21 04:00:26;;;;;;;79.13;45.13;;;;;;;3.83;100.00;101103.69;5042415;28;20495;-71
2023/11/21 04:02:52;;;;;;;78.60;45.13;;;;;;;3.84;100.00;101103.75;5043541;28;20029;-75
2023/11/21 04:05:18;;;;;;;68.57;44.97;;;;;;;3.85;100.00;101109.84;5043073;28;20078;-74
2023/11/21 04:07:43;;;;;;;68.28;45.22;;;;;;;3.89;100.00;101111.75;5042213;28;20105;-75
2023/11/21 04:10:09;;;;;;;65.13;44.00;;;;;;;3.94;100.00;101123.25;5044040;28;20029;-75
2023/11/21 04:12:36;;;;;;;72.72;45.22;;;;;;;3.98;100.00;101119.03;5041010;28;20034;-75
2023/11/21 04:15:01;;;;;;;74.15;46.05;;;;;;;4.04;100.00;101126.22;5037190;28;20025;-75
2023/11/21 04:17:26;;;;;;;59.17;43.20;;;;;;;4.11;100.00;101130.81;5043716;28;20447;-74
2023/11/21 04:19:52;;;;;;;79.85;46.33;;;;;;;4.10;100.00;101129.03;5041964;28;20067;-75
2023/11/21 04:22:17;;;;;;;68.55;44.78;;;;;;;4.11;100.00;101139.56;5042929;28;20029;-74
2023/11/21 04:24:43;;;;;;;69.90;46.17;;;;;;;4.12;100.00;101133.50;5043280;28;20040;-75
2023/11/21 04:27:08;;;;;;;72.45;45.65;;;;;;;4.12;100.00;101138.72;5040791;28;20025;-75
2023/11/21 04:29:34;;;;;;;69.95;45.85;;;;;;;4.13;100.00;101142.22;5043313;28;20029;-75
2023/11/21 04:32:00;;;;;;;73.60;45.70;;;;;;;4.12;100.00;101149.19;5040853;28;20034;-75
2023/11/21 04:34:26;;;;;;;67.32;44.60;;;;;;;4.12;100.00;101149.19;5043438;28;20106;-75
2023/11/21 04:36:51;;;;;;;73.18;46.13;;;;;;;4.14;100.00;101151.88;5042181;28;20480;-75
2023/11/21 04:39:16;;;;;;;76.03;45.22;;;;;;;4.15;100.00;101153.63;5042243;28;20034;-75
2023/11/21 04:41:42;;;;;;;72.53;45.70;;;;;;;4.15;100.00;101154.53;5043265;28;20103;-74
2023/11/21 04:44:08;;;;;;;67.03;44.67;;;;;;;4.17;100.00;101155.47;5040950;28;20041;-73
2023/11/21 04:46:33;;;;;;;67.60;44.65;;;;;;;4.21;100.00;101152.94;5044161;28;20040;-74
2023/11/21 04:48:58;;;;;;;69.88;45.10;;;;;;;4.22;100.00;101159.97;5041162;28;20065;-74
2023/11/21 04:51:24;;;;;;;64.07;43.40;;;;;;;4.24;100.00;101163.53;5043035;28;20037;-73
2023/11/21 04:53:49;;;;;;;66.32;42.33;;;;;;;4.26;100.00;101156.63;5042205;28;20086;-74
2023/11/21 04:56:16;;;;;;;61.85;42.72;;;;;;;4.29;100.00;101170.69;5041838;28;20029;-74
2023/11/21 04:58:41;;;;;;;65.38;42.47;;;;;;;4.32;100.00;101165.56;5043301;28;20036;-74
2023/11/21 05:01:09;;;;;;;61.60;42.03;;;;;;;4.34;100.00;101166.53;5040610;28;20033;-73
2023/11/21 05:03:35;;;;;;;64.35;42.38;;;;;;;4.39;100.00;101169.31;5044079;28;20029;-72
2023/11/21 05:06:00;;;;;;;61.20;41.70;;;;;;;4.42;100.00;101174.66;5040673;28;20029;-74
2023/11/21 05:08:26;;;;;;;61.95;41.90;;;;;;;4.45;100.00;101174.75;5043198;28;20041;-73
2023/11/21 05:10:52;;;;;;;60.35;41.25;;;;;;;4.49;100.00;101170.53;5042131;28;20108;-73
2023/11/21 05:13:18;;;;;;;61.85;40.95;;;;;;;4.53;100.00;101181.16;5041874;28;20025;-73
2023/11/21 05:15:44;;;;;;;64.00;40.95;;;;;;;4.56;100.00;101174.22;5042760;28;20055;-73
2023/11/21 05:18:09;;;;;;;63.70;40.40;;;;;;;4.61;100.00;101180.53;5040932;28;20516;-73
2023/11/21 05:20:35;;;;;;;64.95;41.08;;;;;;;4.61;100.00;101180.53;5042357;28;20033;-71
2023/11/21 05:23:01;;;;;;;60.25;39.78;;;;;;;4.67;100.00;101188.56;5040436;28;20068;-71
2023/11/21 05:25:27;;;;;;;60.53;38.42;;;;;;;4.72;100.00;101193.13;5043212;28;20032;-71
2023/11/21 05:27:53;;;;;;;59.80;39.65;;;;;;;4.76;100.00;101191.53;5041557;28;20029;-71
2023/11/21 05:30:18;;;;;;;56.17;38.50;;;;;;;4.81;100.00;101203.03;5042058;28;20040;-71
2023/11/21 05:32:44;;;;;;;59.63;39.33;;;;;;;4.84;100.00;101202.25;5042964;28;20112;-71
2023/11/21 05:35:15;;;;;;;61.65;38.80;;;;;;;4.85;100.00;101214.53;5040575;28;20021;-71
2023/11/21 05:37:40;;;;;;;62.55;39.17;;;;;;;4.85;100.00;101211.91;5043733;28;20396;-71
2023/11/21 05:40:07;;;;;;;59.20;38.58;;;;;;;4.84;100.00;101216.22;5044039;28;20037;-71
2023/11/21 05:42:33;;;;;;;61.42;38.00;;;;;;;4.85;100.00;101218.03;5039479;28;20132;-71
2023/11/21 05:44:59;;;;;;;63.33;38.88;;;;;;;4.86;100.00;101214.56;5046646;28;20473;-72
2023/11/21 05:47:26;;;;;;;70.38;40.30;;;;;;;4.91;100.00;101226.91;5044802;28;20068;-71
2023/11/21 05:49:52;;;;;;;67.65;39.47;;;;;;;4.91;100.00;101225.19;5045587;28;20033;-71
2023/11/21 05:52:17;;;;;;;68.88;39.22;;;;;;;4.92;100.00;101228.69;5045705;28;20052;-72
2023/11/21 05:54:43;;;;;;;78.03;40.00;;;;;;;4.94;100.00;101227.03;5044410;28;20033;-71
2023/11/21 05:57:08;;;;;;;80.47;40.15;;;;;;;4.97;100.00;101232.38;5046840;28;20041;-71
2023/11/21 05:59:34;;;;;;;84.43;40.35;;;;;;;4.98;100.00;101239.38;5043673;28;20392;-71
2023/11/21 06:01:59;;;;;;;91.30;41.33;;;;;;;5.01;100.00;101244.72;5046382;28;20507;-71
2023/11/21 06:04:25;;;;;;;101.05;41.88;;;;;;;5.03;100.00;101246.56;5044209;28;20026;-71
2023/11/21 06:06:52;;;;;;;112.28;42.55;;;;;;;5.05;100.00;101246.59;5045316;28;20029;-71
2023/11/21 06:09:17;;;;;;;106.53;41.38;;;;;;;5.06;100.00;101251.00;5045274;28;20116;-74
2023/11/21 06:11:42;;;;;;;123.63;43.80;;;;;;;5.09;100.00;101253.72;5043966;28;20133;-74
2023/11/21 06:14:09;;;;;;;111.47;42.28;;;;;;;5.10;100.00;101247.66;5046662;28;20056;-74
2023/11/21 06:16:34;;;;;;;156.45;45.50;;;;;;;5.11;100.00;101254.69;5043015;28;20607;-73
2023/11/21 06:19:01;;;;;;;137.63;44.00;;;;;;;5.13;100.00;101254.75;5046016;28;20037;-74
2023/11/21 06:21:26;;;;;;;171.10;46.85;;;;;;;5.14;100.00;101261.75;5044034;28;20037;-74
2023/11/21 06:23:52;;;;;;;140.15;44.95;;;;;;;5.11;100.00;101262.56;5044844;28;20091;-74
2023/11/21 06:26:18;;;;;;;179.18;47.13;;;;;;;5.06;100.00;101274.59;5043719;28;20043;-75
2023/11/21 06:28:44;;;;;;;177.85;46.30;;;;;;;5.15;100.00;101266.16;5043905;28;20033;-73
2023/11/21 06:31:10;;;;;;;270.50;51.55;;;;;;;5.19;100.00;101271.53;5045947;28;20029;-73
2023/11/21 06:33:36;;;;;;;226.75;48.72;;;;;;;5.21;100.00;101271.59;5042774;28;20053;-73
2023/11/21 06:36:02;;;;;;;205.45;49.40;;;;;;;5.22;100.00;101271.63;5046029;28;20132;-74
2023/11/21 06:38:29;;;;;;;273.38;54.50;;;;;;;5.26;100.00;101279.59;5043637;28;20029;-73
2023/11/21 06:40:55;;;;;;;259.52;50.90;;;;;;;5.29;100.00;101277.13;5044943;28;20057;-76
2023/11/21 06:43:21;;;;;;;208.82;51.30;;;;;;;5.32;100.00;101271.97;5044100;28;20140;-77
2023/11/21 06:45:47;;;;;;;190.35;48.38;;;;;;;5.32;100.00;101272.84;5044010;28;20041;-74
2023/11/21 06:48:12;;;;;;;282.50;51.92;;;;;;;5.35;100.00;101274.69;5045072;28;20029;-73
2023/11/21 06:50:37;;;;;;;227.43;50.83;;;;;;;5.35;100.00;101278.19;5042704;28;20029;-71
2023/11/21 06:53:06;;;;;;;264.95;51.25;;;;;;;5.38;100.00;101287.88;5038413;28;20113;-71
2023/11/21 06:55:32;;;;;;;230.73;52.55;;;;;;;5.40;100.00;101289.72;5045567;28;20032;-72
2023/11/21 06:57:58;;;;;;;214.23;49.50;;;;;;;5.43;100.00;101285.41;5043132;28;20370;-71
2023/11/21 07:00:23;;;;;;;187.45;50.60;;;;;;;5.44;100.00;101293.31;5044287;28;20029;-71
2023/11/21 07:02:49;;;;;;;163.07;48.40;;;;;;;5.46;100.00;101302.16;5044209;28;20072;-71
2023/11/21 07:05:15;;;;;;;171.05;47.47;;;;;;;5.46;100.00;101302.16;5042945;28;20029;-71
2023/11/21 07:07:40;;;;;;;211.60;51.30;;;;;;;5.48;100.00;101307.44;5045332;28;20058;-71
2023/11/21 07:10:08;;;;;;;165.93;48.40;;;;;;;5.48;100.00;101300.44;5042247;28;20030;-71
2023/11/21 07:12:33;;;;;;;143.75;46.50;;;;;;;5.51;100.00;101304.91;5040864;28;20029;-71
2023/11/21 07:14:59;;;;;;;138.20;47.55;;;;;;;5.53;100.00;101309.38;5044805;28;20549;-71
2023/11/21 07:17:24;;;;;;;161.93;49.05;;;;;;;5.54;100.00;101312.88;5043128;28;20037;-72
2023/11/21 07:19:50;;;;;;;162.88;49.25;;;;;;;5.56;100.00;101321.66;5043349;28;20026;-71
2023/11/21 07:22:21;;;;;;;158.88;49.42;;;;;;;5.58;100.00;101331.38;5044265;28;20031;-71
2023/11/21 07:24:49;;;;;;;148.75;48.90;;;;;;;5.62;100.00;101341.97;5043289;28;20037;-71
2023/11/21 07:27:15;;;;;;;144.90;48.30;;;;;;;5.62;100.00;101335.00;5044443;28;20087;-71
2023/11/21 07:29:40;;;;;;;147.40;47.42;;;;;;;5.66;100.00;101349.09;5041931;28;20033;-71
2023/11/21 07:32:06;;;;;;;147.70;48.25;;;;;;;5.67;100.00;101343.03;5045198;28;20108;-71
2023/11/21 07:34:31;;;;;;;132.50;47.20;;;;;;;5.70;100.00;101351.88;5042090;28;20117;-71
2023/11/21 07:36:56;;;;;;;115.03;45.85;;;;;;;5.72;100.00;101360.69;5043957;28;20068;-71
2023/11/21 07:39:21;;;;;;;131.65;46.30;;;;;;;5.75;100.00;101365.13;5043470;28;20033;-71
2023/11/21 07:41:48;;;;;;;128.43;48.22;;;;;;;5.77;100.00;101368.72;5042945;28;20041;-71
2023/11/21 07:44:14;;;;;;;123.30;46.83;;;;;;;5.78;100.00;101354.72;5044021;28;20045;-71
2023/11/21 07:46:40;;;;;;;123.68;46.67;;;;;;;5.81;100.00;101354.84;5041750;28;20354;-71
2023/11/21 07:49:05;;;;;;;117.72;47.55;;;;;;;5.84;100.00;101359.28;5044686;28;20028;-71
2023/11/21 07:51:31;;;;;;;122.18;47.33;;;;;;;5.87;100.00;101367.28;5041701;28;20128;-71
2023/11/21 07:53:56;;;;;;;132.02;48.13;;;;;;;5.89;100.00;101365.59;5043875;28;20076;-71
2023/11/21 07:56:22;;;;;;;115.90;46.38;;;;;;;5.94;100.00;101378.00;5042912;28;20037;-71
2023/11/21 07:58:47;;;;;;;118.95;46.95;;;;;;;5.99;100.00;101369.44;5042752;28;20033;-71
2023/11/21 08:01:13;;;;;;;107.63;45.70;;;;;;;6.01;100.00;101366.00;5043567;28;20139;-71
2023/11/21 08:03:38;;;;;;;105.93;45.35;;;;;;;6.04;100.00;101380.94;5041228;28;20499;-71
2023/11/21 08:06:05;;;;;;;117.07;46.33;;;;;;;6.08;100.00;101385.47;5037228;28;20065;-71
2023/11/21 08:08:32;;;;;;;114.00;45.85;;;;;;;6.15;100.00;101381.31;5044447;28;20404;-71
2023/11/21 08:10:57;;;;;;;102.57;46.67;;;;;;;6.21;100.00;101390.25;5041908;28;20048;-71
2023/11/21 08:13:27;;;;;;;121.95;46.45;;;;;;;6.24;100.00;101397.34;5043113;28;20107;-71
2023/11/21 08:16:02;;;;;;;113.18;45.97;;;;;;;6.27;100.00;101393.06;5042595;28;20025;-71
2023/11/21 08:18:28;;;;;;;95.88;44.53;;;;;;;6.31;100.00;101391.44;5043682;28;20034;-71
2023/11/21 08:20:55;;;;;;;114.38;46.13;;;;;;;6.35;100.00;101400.28;5042261;28;20074;-71
2023/11/21 08:23:20;;;;;;;111.25;45.45;;;;;;;6.40;100.00;101396.06;5042589;28;20030;-71
2023/11/21 08:25:46;;;;;;;97.13;44.50;;;;;;;6.45;100.00;101402.34;5043159;28;20543;-72
2023/11/21 08:28:16;;;;;;;106.45;46.63;;;;;;;6.49;100.00;101405.97;5041261;28;20036;-71
2023/11/21 08:30:41;;;;;;;86.28;43.13;;;;;;;6.53;100.00;101413.97;5044207;28;20040;-71
2023/11/21 08:33:08;;;;;;;94.97;44.42;;;;;;;6.52;100.00;101406.94;5040843;28;20029;-71
2023/11/21 08:35:34;;;;;;;106.35;45.15;;;;;;;6.52;100.00;101412.19;5044000;28;20033;-71
2023/11/21 08:37:59;;;;;;;96.65;43.90;;;;;;;6.55;100.00;101420.19;5041452;28;20511;-71
2023/11/21 08:40:25;;;;;;;103.70;45.40;;;;;;;6.55;100.00;101425.44;5042946;28;20088;-71
2023/11/21 08:42:52;;;;;;;97.60;45.17;;;;;;;6.58;100.00;101435.13;5042169;28;20045;-72
2023/11/21 08:45:18;;;;;;;99.63;44.55;;;;;;;6.60;100.00;101436.06;5042062;28;20514;-71
2023/11/21 08:47:46;;;;;;;95.93;44.30;;;;;;;6.60;100.00;101436.94;5043461;28;20033;-71
2023/11/21 08:50:12;;;;;;;104.25;44.65;;;;;;;6.62;100.00;101440.50;5041061;28;20030;-71
2023/11/21 08:52:38;;;;;;;87.00;43.00;;;;;;;6.65;100.00;101446.72;5044359;28;20036;-72
2023/11/21 08:55:08;;;;;;;98.35;44.42;;;;;;;6.68;100.00;101444.19;5036510;28;20036;-72
2023/11/21 08:57:37;;;;;;;93.30;44.10;;;;;;;6.71;100.00;101446.88;5044072;28;20183;-72
2023/11/21 09:00:12;;;;;;;90.13;44.35;;;;;;;6.79;100.00;101440.13;5041027;28;20488;-71
2023/11/21 09:02:44;;;;;;;95.55;45.25;;;;;;;6.86;100.00;101436.84;5037716;28;20469;-71
2023/11/21 09:05:13;;;;;;;112.85;47.58;;;;;;;6.92;100.00;101444.00;5037112;28;20393;-71
2023/11/21 09:07:41;;;;;;;91.35;44.63;;;;;;;6.96;100.00;101446.78;5037066;28;20164;-72
2023/11/21 09:10:07;;;;;;;100.03;45.28;;;;;;;7.00;100.00;101441.59;5037088;28;20033;-75
2023/11/21 09:12:32;;;;;;;97.45;44.85;;;;;;;7.07;100.00;101443.56;5045615;28;20480;-75
2023/11/21 09:14:58;;;;;;;110.18;47.38;;;;;;;7.12;100.00;101447.19;5045129;28;20044;-74
2023/11/21 09:17:24;;;;;;;95.57;45.78;;;;;;;7.16;100.00;101459.56;5046481;28;20384;-75
2023/11/21 09:19:52;;;;;;;107.88;45.78;;;;;;;7.16;100.00;101456.94;5044962;28;20115;-75
2023/11/21 09:22:17;;;;;;;101.65;46.13;;;;;;;7.18;100.00;101459.63;5045245;28;20033;-75
2023/11/21 09:24:43;;;;;;;102.97;44.78;;;;;;;7.19;100.00;101470.19;5045607;28;20388;-75
2023/11/21 09:27:09;;;;;;;104.13;45.92;;;;;;;7.22;100.00;101472.88;5040044;28;20429;-75
2023/11/21 09:29:35;;;;;;;96.75;45.00;;;;;;;7.27;100.00;101471.28;5044580;28;20033;-75
2023/11/21 09:32:01;;;;;;;100.03;45.08;;;;;;;7.33;100.00;101474.09;5044291;28;20124;-74
2023/11/21 09:34:27;;;;;;;103.75;46.22;;;;;;;7.39;100.00;101475.13;5044762;28;20125;-78
2023/11/21 09:36:53;;;;;;;97.30;45.05;;;;;;;7.47;100.00;101486.72;5046558;28;20040;-78
2023/11/21 09:39:18;;;;;;;98.32;44.63;;;;;;;7.49;100.00;101485.94;5044927;28;20100;-79
2023/11/21 09:41:49;;;;;;;94.55;41.92;;;;;;;7.60;100.00;101495.84;5045513;28;20125;-77
2023/11/21 09:44:18;;;;;;;96.97;41.38;;;;;;;7.70;100.00;101497.00;5044995;28;20045;-75
2023/11/21 09:46:48;;;;;;;94.97;40.00;;;;;;;7.81;100.00;101509.59;5047725;28;20049;-76
2023/11/21 09:49:14;;;;;;;84.53;39.05;;;;;;;7.90;100.00;101498.41;5045484;28;20021;-75
2023/11/21 09:51:42;;;;;;;89.85;40.75;;;;;;;7.96;100.00;101508.19;5045453;28;20025;-75
2023/11/21 09:54:10;;;;;;;83.28;38.50;;;;;;;8.06;100.00;101511.97;5044993;28;20425;-74
2023/11/21 09:56:37;;;;;;;88.35;38.80;;;;;;;8.25;100.00;101511.56;5046333;28;20025;-73
2023/11/21 09:59:06;;;;;;;82.53;37.75;;;;;;;8.48;100.00;101513.91;5043786;28;20040;-73
2023/11/21 10:01:33;;;;;;;93.55;38.85;;;;;;;8.62;100.00;101525.66;5046597;28;20338;-75
2023/11/21 10:03:59;;;;;;;86.43;38.28;;;;;;;8.84;100.00;101531.41;5043637;28;20031;-75
2023/11/21 10:06:26;;;;;;;80.78;37.70;;;;;;;8.96;100.00;101529.03;5042175;28;20446;-74
2023/11/21 10:08:56;;;;;;;74.47;37.22;;;;;;;9.10;100.00;101526.72;5045915;28;20033;-73
2023/11/21 10:11:24;;;;;;;72.53;36.60;;;;;;;9.25;100.00;101526.16;5043793;28;20025;-74
2023/11/21 10:13:53;;;;;;;71.90;35.70;;;;;;;9.29;100.00;101538.53;5046163;28;20043;-74
2023/11/21 10:16:22;;;;;;;70.00;35.13;;;;;;;9.24;100.00;101534.91;5043844;28;20041;-73
2023/11/21 10:18:55;;;;;;;62.92;34.17;;;;;;;9.14;100.00;101539.09;5044636;28;20404;-75
2023/11/21 10:21:21;;;;;;;66.18;33.50;;;;;;;9.11;100.00;101543.44;5043368;28;20025;-75
2023/11/21 10:23:47;;;;;;;62.90;31.77;;;;;;;9.04;100.00;101553.84;5044886;28;20034;-74
2023/11/21 10:26:16;;;;;;;58.08;31.05;;;;;;;8.93;100.00;101550.06;5044464;28;20025;-75
2023/11/21 10:28:56;;;;;;;60.63;31.70;;;;;;;8.89;100.00;101556.13;5044598;28;20065;-71
2023/11/21 10:31:24;;;;;;;60.38;31.58;;;;;;;8.83;100.00;101550.72;5043107;28;20053;-71
2023/11/21 10:33:49;;;;;;;59.60;31.80;;;;;;;8.86;100.00;101558.72;5046454;28;20365;-71
2023/11/21 10:36:26;;;;;;;54.92;31.65;;;;;;;8.93;100.00;101565.91;5042887;28;20175;-71
2023/11/21 10:38:53;;;;;;;57.95;30.52;;;;;;;8.95;100.00;101556.25;5040079;28;20033;-73
2023/11/21 10:41:18;;;;;;;51.00;28.67;;;;;;;9.07;100.00;101553.91;5046286;28;20045;-71
2023/11/21 10:43:44;;;;;;;54.15;30.15;;;;;;;9.15;100.00;101564.63;5042675;28;20084;-71
2023/11/21 10:46:09;;;;;;;54.33;29.40;;;;;;;9.14;100.00;101562.81;5045242;28;20392;-71
2023/11/21 10:48:35;;;;;;;49.60;28.17;;;;;;;9.13;100.00;101565.44;5044003;28;20025;-71
2023/11/21 10:51:07;;;;;;;50.13;27.58;;;;;;;9.13;100.00;101568.06;5043971;28;20469;-72
2023/11/21 10:53:33;;;;;;;51.25;28.45;;;;;;;9.17;100.00;101559.38;5044749;28;20044;-71
2023/11/21 10:56:07;;;;;;;49.00;26.30;;;;;;;9.21;100.00;101571.78;5043408;28;20610;-71
2023/11/21 10:58:32;;;;;;;46.75;25.48;;;;;;;9.27;100.00;101571.03;5044016;28;20032;-71
2023/11/21 11:00:59;;;;;;;49.80;26.75;;;;;;;9.22;100.00;101571.81;5043502;28;20026;-71
2023/11/21 11:03:25;;;;;;;47.88;26.17;;;;;;;9.19;100.00;101566.47;5044912;28;20503;-71